sensor_id;sensor_type;location;lat;lon;timestamp;P1;durP1;ratioP1;P2;durP2;ratioP2
70010;SDS011;59543;37.950;-122.338;2022-11-25T00:03:38;30.73;;;18.65;;
70010;SDS011;59543;37.950;-122.338;2022-11-25T00:06:16;36.13;;;18.95;;
70010;SDS011;59543;37.950;-122.338;2022-11-25T00:08:44;32.03;;;18.90;;
70010;SDS011;59543;37.950;-122.338;2022-11-25T00:11:14;31.08;;;19.23;;
70010;SDS011;59543;37.950;-122.338;2022-11-25T00:13:41;32.83;;;19.27;;
70010;SDS011;59543;37.950;-122.338;2022-11-25T00:16:10;30.95;;;18.80;;
70010;SDS011;59543;37.950;-122.338;2022-11-25T00:18:38;37.05;;;18.52;;
70010;SDS011;59543;37.950;-122.338;2022-11-25T00:21:05;30.50;;;17.55;;
70010;SDS011;59543;37.950;-122.338;2022-11-25T00:23:33;33.03;;;17.85;;
70010;SDS011;59543;37.950;-122.338;2022-11-25T00:26:07;30.13;;;17.17;;
70010;SDS011;59543;37.950;-122.338;2022-11-25T00:28:38;31.48;;;17.20;;
70010;SDS011;59543;37.950;-122.338;2022-11-25T00:31:07;31.05;;;17.23;;
70010;SDS011;59543;37.950;-122.338;2022-11-25T00:33:35;37.50;;;17.77;;
70010;SDS011;59543;37.950;-122.338;2022-11-25T00:36:03;28.63;;;17.77;;
70010;SDS011;59543;37.950;-122.338;2022-11-25T00:38:30;28.77;;;16.40;;
70010;SDS011;59543;37.950;-122.338;2022-11-25T00:40:56;29.20;;;15.75;;
70010;SDS011;59543;37.950;-122.338;2022-11-25T00:43:41;28.23;;;15.32;;
70010;SDS011;59543;37.950;-122.338;2022-11-25T00:46:26;28.55;;;16.08;;
70010;SDS011;59543;37.950;-122.338;2022-11-25T00:48:52;33.67;;;16.25;;
70010;SDS011;59543;37.950;-122.338;2022-11-25T00:51:18;34.75;;;16.48;;
70010;SDS011;59543;37.950;-122.338;2022-11-25T00:53:44;31.42;;;16.80;;
70010;SDS011;59543;37.950;-122.338;2022-11-25T00:56:11;31.15;;;16.95;;
70010;SDS011;59543;37.950;-122.338;2022-11-25T00:58:40;28.40;;;17.35;;
70010;SDS011;59543;37.950;-122.338;2022-11-25T01:01:07;30.10;;;16.25;;
70010;SDS011;59543;37.950;-122.338;2022-11-25T01:03:34;29.33;;;17.30;;
70010;SDS011;59543;37.950;-122.338;2022-11-25T01:06:02;28.90;;;17.58;;
70010;SDS011;59543;37.950;-122.338;2022-11-25T01:08:30;31.60;;;17.38;;
70010;SDS011;59543;37.950;-122.338;2022-11-25T01:11:00;35.80;;;17.08;;
70010;SDS011;59543;37.950;-122.338;2022-11-25T01:13:29;30.70;;;17.50;;
70010;SDS011;59543;37.950;-122.338;2022-11-25T01:15:56;28.13;;;18.00;;
70010;SDS011;59543;37.950;-122.338;2022-11-25T01:18:25;29.83;;;16.80;;
70010;SDS011;59543;37.950;-122.338;2022-11-25T01:20:53;31.80;;;18.13;;
70010;SDS011;59543;37.950;-122.338;2022-11-25T01:23:19;27.30;;;17.33;;
70010;SDS011;59543;37.950;-122.338;2022-11-25T01:25:45;27.75;;;17.10;;
70010;SDS011;59543;37.950;-122.338;2022-11-25T01:28:11;29.98;;;18.25;;
70010;SDS011;59543;37.950;-122.338;2022-11-25T01:30:38;30.50;;;17.98;;
70010;SDS011;59543;37.950;-122.338;2022-11-25T01:33:04;34.10;;;19.02;;
70010;SDS011;59543;37.950;-122.338;2022-11-25T01:35:30;35.38;;;18.55;;
70010;SDS011;59543;37.950;-122.338;2022-11-25T01:37:57;37.47;;;18.05;;
70010;SDS011;59543;37.950;-122.338;2022-11-25T01:40:26;40.20;;;19.35;;
70010;SDS011;59543;37.950;-122.338;2022-11-25T01:42:52;30.48;;;18.60;;
70010;SDS011;59543;37.950;-122.338;2022-11-25T01:45:27;35.90;;;17.98;;
70010;SDS011;59543;37.950;-122.338;2022-11-25T01:48:01;33.92;;;17.85;;
70010;SDS011;59543;37.950;-122.338;2022-11-25T01:50:34;36.27;;;19.43;;
70010;SDS011;59543;37.950;-122.338;2022-11-25T01:53:01;34.60;;;19.52;;
70010;SDS011;59543;37.950;-122.338;2022-11-25T01:55:32;44.17;;;19.63;;
70010;SDS011;59543;37.950;-122.338;2022-11-25T01:58:02;46.55;;;20.98;;
70010;SDS011;59543;37.950;-122.338;2022-11-25T02:00:39;41.35;;;21.55;;
70010;SDS011;59543;37.950;-122.338;2022-11-25T02:03:05;41.97;;;20.83;;
70010;SDS011;59543;37.950;-122.338;2022-11-25T02:05:38;39.08;;;21.05;;
70010;SDS011;59543;37.950;-122.338;2022-11-25T02:08:13;45.53;;;21.42;;
70010;SDS011;59543;37.950;-122.338;2022-11-25T02:10:40;47.97;;;22.27;;
70010;SDS011;59543;37.950;-122.338;2022-11-25T02:13:09;44.05;;;21.67;;
70010;SDS011;59543;37.950;-122.338;2022-11-25T02:15:35;50.10;;;22.88;;
70010;SDS011;59543;37.950;-122.338;2022-11-25T02:18:01;40.53;;;20.90;;
70010;SDS011;59543;37.950;-122.338;2022-11-25T02:20:28;44.35;;;21.40;;
70010;SDS011;59543;37.950;-122.338;2022-11-25T02:25:41;43.42;;;21.00;;
70010;SDS011;59543;37.950;-122.338;2022-11-25T02:28:11;45.38;;;21.83;;
70010;SDS011;59543;37.950;-122.338;2022-11-25T02:30:40;43.50;;;21.50;;
70010;SDS011;59543;37.950;-122.338;2022-11-25T02:33:07;50.70;;;22.20;;
70010;SDS011;59543;37.950;-122.338;2022-11-25T02:35:38;39.95;;;22.35;;
70010;SDS011;59543;37.950;-122.338;2022-11-25T02:40:58;48.60;;;24.48;;
70010;SDS011;59543;37.950;-122.338;2022-11-25T02:43:25;40.90;;;23.35;;
70010;SDS011;59543;37.950;-122.338;2022-11-25T02:46:02;45.67;;;25.50;;
70010;SDS011;59543;37.950;-122.338;2022-11-25T02:48:34;58.75;;;25.60;;
70010;SDS011;59543;37.950;-122.338;2022-11-25T02:51:02;65.82;;;27.27;;
70010;SDS011;59543;37.950;-122.338;2022-11-25T02:53:29;58.47;;;28.23;;
70010;SDS011;59543;37.950;-122.338;2022-11-25T02:55:55;54.65;;;25.77;;
70010;SDS011;59543;37.950;-122.338;2022-11-25T02:58:21;53.30;;;26.73;;
70010;SDS011;59543;37.950;-122.338;2022-11-25T03:00:47;59.60;;;27.55;;
70010;SDS011;59543;37.950;-122.338;2022-11-25T03:03:14;50.15;;;26.80;;
70010;SDS011;59543;37.950;-122.338;2022-11-25T03:05:40;58.53;;;28.52;;
70010;SDS011;59543;37.950;-122.338;2022-11-25T03:08:07;54.10;;;28.20;;
70010;SDS011;59543;37.950;-122.338;2022-11-25T03:10:34;58.95;;;28.55;;
70010;SDS011;59543;37.950;-122.338;2022-11-25T03:13:01;69.63;;;31.20;;
70010;SDS011;59543;37.950;-122.338;2022-11-25T03:15:28;159.93;;;94.47;;
70010;SDS011;59543;37.950;-122.338;2022-11-25T03:17:55;82.70;;;41.60;;
70010;SDS011;59543;37.950;-122.338;2022-11-25T03:20:21;72.95;;;32.88;;
70010;SDS011;59543;37.950;-122.338;2022-11-25T03:22:48;67.00;;;33.13;;
70010;SDS011;59543;37.950;-122.338;2022-11-25T03:25:15;59.15;;;29.60;;
70010;SDS011;59543;37.950;-122.338;2022-11-25T03:27:42;54.70;;;26.45;;
70010;SDS011;59543;37.950;-122.338;2022-11-25T03:30:13;53.38;;;25.10;;
70010;SDS011;59543;37.950;-122.338;2022-11-25T03:32:41;44.53;;;23.33;;
70010;SDS011;59543;37.950;-122.338;2022-11-25T03:35:08;39.47;;;23.55;;
70010;SDS011;59543;37.950;-122.338;2022-11-25T03:37:35;44.53;;;21.90;;
70010;SDS011;59543;37.950;-122.338;2022-11-25T03:40:02;37.28;;;22.50;;
70010;SDS011;59543;37.950;-122.338;2022-11-25T03:42:30;33.20;;;21.38;;
70010;SDS011;59543;37.950;-122.338;2022-11-25T03:44:56;34.75;;;21.15;;
70010;SDS011;59543;37.950;-122.338;2022-11-25T03:47:22;45.08;;;23.25;;
70010;SDS011;59543;37.950;-122.338;2022-11-25T03:49:48;40.20;;;22.17;;
70010;SDS011;59543;37.950;-122.338;2022-11-25T03:52:14;41.95;;;23.85;;
70010;SDS011;59543;37.950;-122.338;2022-11-25T03:54:41;56.42;;;28.15;;
70010;SDS011;59543;37.950;-122.338;2022-11-25T03:57:07;38.55;;;23.55;;
70010;SDS011;59543;37.950;-122.338;2022-11-25T03:59:33;36.83;;;23.13;;
70010;SDS011;59543;37.950;-122.338;2022-11-25T04:02:00;39.60;;;20.23;;
70010;SDS011;59543;37.950;-122.338;2022-11-25T04:04:26;37.50;;;20.17;;
70010;SDS011;59543;37.950;-122.338;2022-11-25T04:06:52;33.63;;;20.23;;
70010;SDS011;59543;37.950;-122.338;2022-11-25T04:09:19;37.20;;;20.85;;
70010;SDS011;59543;37.950;-122.338;2022-11-25T04:11:45;34.78;;;19.63;;
70010;SDS011;59543;37.950;-122.338;2022-11-25T04:14:30;31.83;;;19.30;;
70010;SDS011;59543;37.950;-122.338;2022-11-25T04:16:56;40.28;;;19.17;;
70010;SDS011;59543;37.950;-122.338;2022-11-25T04:19:22;32.70;;;18.05;;
70010;SDS011;59543;37.950;-122.338;2022-11-25T04:21:48;29.48;;;19.08;;
70010;SDS011;59543;37.950;-122.338;2022-11-25T04:24:15;31.88;;;18.30;;
70010;SDS011;59543;37.950;-122.338;2022-11-25T04:26:41;30.40;;;18.45;;
70010;SDS011;59543;37.950;-122.338;2022-11-25T04:29:07;27.23;;;17.45;;
70010;SDS011;59543;37.950;-122.338;2022-11-25T04:31:33;30.15;;;17.88;;
70010;SDS011;59543;37.950;-122.338;2022-11-25T04:33:59;29.15;;;18.17;;
70010;SDS011;59543;37.950;-122.338;2022-11-25T04:36:26;29.08;;;18.33;;
70010;SDS011;59543;37.950;-122.338;2022-11-25T04:38:52;24.25;;;17.08;;
70010;SDS011;59543;37.950;-122.338;2022-11-25T04:41:18;29.98;;;16.88;;
70010;SDS011;59543;37.950;-122.338;2022-11-25T04:43:44;27.95;;;17.73;;
70010;SDS011;59543;37.950;-122.338;2022-11-25T04:46:14;29.45;;;16.83;;
70010;SDS011;59543;37.950;-122.338;2022-11-25T04:48:43;30.92;;;17.95;;
70010;SDS011;59543;37.950;-122.338;2022-11-25T04:51:10;33.85;;;18.02;;
70010;SDS011;59543;37.950;-122.338;2022-11-25T04:53:36;35.85;;;17.88;;
70010;SDS011;59543;37.950;-122.338;2022-11-25T04:56:02;24.50;;;16.80;;
70010;SDS011;59543;37.950;-122.338;2022-11-25T04:58:28;30.42;;;19.60;;
70010;SDS011;59543;37.950;-122.338;2022-11-25T05:01:13;31.42;;;18.25;;
70010;SDS011;59543;37.950;-122.338;2022-11-25T05:03:39;25.70;;;16.65;;
70010;SDS011;59543;37.950;-122.338;2022-11-25T05:06:06;25.92;;;16.45;;
70010;SDS011;59543;37.950;-122.338;2022-11-25T05:08:34;27.08;;;17.13;;
70010;SDS011;59543;37.950;-122.338;2022-11-25T05:11:00;28.67;;;17.55;;
70010;SDS011;59543;37.950;-122.338;2022-11-25T05:13:27;24.75;;;16.70;;
70010;SDS011;59543;37.950;-122.338;2022-11-25T05:15:53;30.90;;;17.02;;
70010;SDS011;59543;37.950;-122.338;2022-11-25T05:18:22;24.17;;;16.35;;
70010;SDS011;59543;37.950;-122.338;2022-11-25T05:20:48;25.50;;;16.85;;
70010;SDS011;59543;37.950;-122.338;2022-11-25T05:23:15;28.45;;;17.45;;
70010;SDS011;59543;37.950;-122.338;2022-11-25T05:25:41;31.70;;;17.70;;
70010;SDS011;59543;37.950;-122.338;2022-11-25T05:28:07;24.48;;;17.08;;
70010;SDS011;59543;37.950;-122.338;2022-11-25T05:30:33;29.90;;;17.15;;
70010;SDS011;59543;37.950;-122.338;2022-11-25T05:32:59;29.92;;;17.02;;
70010;SDS011;59543;37.950;-122.338;2022-11-25T05:35:25;23.83;;;15.90;;
70010;SDS011;59543;37.950;-122.338;2022-11-25T05:37:52;24.73;;;16.90;;
70010;SDS011;59543;37.950;-122.338;2022-11-25T05:40:18;22.98;;;16.67;;
70010;SDS011;59543;37.950;-122.338;2022-11-25T05:42:44;29.45;;;16.42;;
70010;SDS011;59543;37.950;-122.338;2022-11-25T05:45:10;32.58;;;18.88;;
70010;SDS011;59543;37.950;-122.338;2022-11-25T05:47:36;24.58;;;16.23;;
70010;SDS011;59543;37.950;-122.338;2022-11-25T05:50:03;26.17;;;16.63;;
70010;SDS011;59543;37.950;-122.338;2022-11-25T05:52:29;23.67;;;16.75;;
70010;SDS011;59543;37.950;-122.338;2022-11-25T05:54:55;29.80;;;16.80;;
70010;SDS011;59543;37.950;-122.338;2022-11-25T05:57:21;24.42;;;16.63;;
70010;SDS011;59543;37.950;-122.338;2022-11-25T05:59:48;30.65;;;17.10;;
70010;SDS011;59543;37.950;-122.338;2022-11-25T06:02:14;28.50;;;17.15;;
70010;SDS011;59543;37.950;-122.338;2022-11-25T06:04:40;28.15;;;17.23;;
70010;SDS011;59543;37.950;-122.338;2022-11-25T06:07:06;25.13;;;15.63;;
70010;SDS011;59543;37.950;-122.338;2022-11-25T06:09:32;28.73;;;17.38;;
70010;SDS011;59543;37.950;-122.338;2022-11-25T06:11:59;25.27;;;16.67;;
70010;SDS011;59543;37.950;-122.338;2022-11-25T06:14:25;28.40;;;17.52;;
70010;SDS011;59543;37.950;-122.338;2022-11-25T06:16:51;25.15;;;16.45;;
70010;SDS011;59543;37.950;-122.338;2022-11-25T06:19:17;26.92;;;17.48;;
70010;SDS011;59543;37.950;-122.338;2022-11-25T06:21:43;27.77;;;17.35;;
70010;SDS011;59543;37.950;-122.338;2022-11-25T06:24:10;27.23;;;16.48;;
70010;SDS011;59543;37.950;-122.338;2022-11-25T06:26:36;32.35;;;18.00;;
70010;SDS011;59543;37.950;-122.338;2022-11-25T06:29:02;28.90;;;17.05;;
70010;SDS011;59543;37.950;-122.338;2022-11-25T06:31:28;30.10;;;17.20;;
70010;SDS011;59543;37.950;-122.338;2022-11-25T06:33:54;24.02;;;17.02;;
70010;SDS011;59543;37.950;-122.338;2022-11-25T06:36:21;26.13;;;18.15;;
70010;SDS011;59543;37.950;-122.338;2022-11-25T06:38:49;28.52;;;18.25;;
70010;SDS011;59543;37.950;-122.338;2022-11-25T06:41:16;34.80;;;19.92;;
70010;SDS011;59543;37.950;-122.338;2022-11-25T06:43:43;38.10;;;20.15;;
70010;SDS011;59543;37.950;-122.338;2022-11-25T06:46:10;26.13;;;18.38;;
70010;SDS011;59543;37.950;-122.338;2022-11-25T06:48:39;26.70;;;18.38;;
70010;SDS011;59543;37.950;-122.338;2022-11-25T06:51:06;31.52;;;19.83;;
70010;SDS011;59543;37.950;-122.338;2022-11-25T06:53:35;30.10;;;18.40;;
70010;SDS011;59543;37.950;-122.338;2022-11-25T06:56:03;27.90;;;18.10;;
70010;SDS011;59543;37.950;-122.338;2022-11-25T06:58:37;32.92;;;20.00;;
70010;SDS011;59543;37.950;-122.338;2022-11-25T07:01:05;34.03;;;21.75;;
70010;SDS011;59543;37.950;-122.338;2022-11-25T07:04:00;27.02;;;19.52;;
70010;SDS011;59543;37.950;-122.338;2022-11-25T07:06:28;39.22;;;22.05;;
70010;SDS011;59543;37.950;-122.338;2022-11-25T07:08:55;32.88;;;20.10;;
70010;SDS011;59543;37.950;-122.338;2022-11-25T07:11:25;34.78;;;22.63;;
70010;SDS011;59543;37.950;-122.338;2022-11-25T07:13:55;44.80;;;23.63;;
70010;SDS011;59543;37.950;-122.338;2022-11-25T07:16:23;32.05;;;22.02;;
70010;SDS011;59543;37.950;-122.338;2022-11-25T07:18:49;31.70;;;20.08;;
70010;SDS011;59543;37.950;-122.338;2022-11-25T07:21:17;33.20;;;20.65;;
70010;SDS011;59543;37.950;-122.338;2022-11-25T07:23:45;30.75;;;20.60;;
70010;SDS011;59543;37.950;-122.338;2022-11-25T07:26:13;31.13;;;20.77;;
70010;SDS011;59543;37.950;-122.338;2022-11-25T07:28:42;33.72;;;19.83;;
70010;SDS011;59543;37.950;-122.338;2022-11-25T07:33:38;30.95;;;20.38;;
70010;SDS011;59543;37.950;-122.338;2022-11-25T07:36:05;35.80;;;21.25;;
70010;SDS011;59543;37.950;-122.338;2022-11-25T07:38:33;32.22;;;20.95;;
70010;SDS011;59543;37.950;-122.338;2022-11-25T07:41:10;31.27;;;19.85;;
70010;SDS011;59543;37.950;-122.338;2022-11-25T07:43:44;36.95;;;21.80;;
70010;SDS011;59543;37.950;-122.338;2022-11-25T07:46:25;35.75;;;22.30;;
70010;SDS011;59543;37.950;-122.338;2022-11-25T07:48:57;36.03;;;21.77;;
70010;SDS011;59543;37.950;-122.338;2022-11-25T07:51:26;46.42;;;24.17;;
70010;SDS011;59543;37.950;-122.338;2022-11-25T07:53:55;35.92;;;23.08;;
70010;SDS011;59543;37.950;-122.338;2022-11-25T07:56:23;33.40;;;22.30;;
70010;SDS011;59543;37.950;-122.338;2022-11-25T07:58:49;37.42;;;22.52;;
70010;SDS011;59543;37.950;-122.338;2022-11-25T08:01:16;35.60;;;22.92;;
70010;SDS011;59543;37.950;-122.338;2022-11-25T08:03:44;27.15;;;19.98;;
70010;SDS011;59543;37.950;-122.338;2022-11-25T08:06:14;35.83;;;22.02;;
70010;SDS011;59543;37.950;-122.338;2022-11-25T08:08:42;32.90;;;21.73;;
70010;SDS011;59543;37.950;-122.338;2022-11-25T08:11:11;34.63;;;21.08;;
70010;SDS011;59543;37.950;-122.338;2022-11-25T08:13:39;34.83;;;21.58;;
70010;SDS011;59543;37.950;-122.338;2022-11-25T08:16:06;37.00;;;20.77;;
70010;SDS011;59543;37.950;-122.338;2022-11-25T08:18:33;31.10;;;19.58;;
70010;SDS011;59543;37.950;-122.338;2022-11-25T08:21:00;29.48;;;20.00;;
70010;SDS011;59543;37.950;-122.338;2022-11-25T08:23:31;37.22;;;19.92;;
70010;SDS011;59543;37.950;-122.338;2022-11-25T08:26:08;31.20;;;18.50;;
70010;SDS011;59543;37.950;-122.338;2022-11-25T08:28:36;32.92;;;19.38;;
70010;SDS011;59543;37.950;-122.338;2022-11-25T08:31:07;32.55;;;17.65;;
70010;SDS011;59543;37.950;-122.338;2022-11-25T08:33:36;28.38;;;18.48;;
70010;SDS011;59543;37.950;-122.338;2022-11-25T08:36:03;31.30;;;19.02;;
70010;SDS011;59543;37.950;-122.338;2022-11-25T08:38:30;27.60;;;17.35;;
70010;SDS011;59543;37.950;-122.338;2022-11-25T08:40:57;28.25;;;18.83;;
70010;SDS011;59543;37.950;-122.338;2022-11-25T08:43:23;29.88;;;20.10;;
70010;SDS011;59543;37.950;-122.338;2022-11-25T08:45:50;38.75;;;20.95;;
70010;SDS011;59543;37.950;-122.338;2022-11-25T08:48:20;28.60;;;21.05;;
70010;SDS011;59543;37.950;-122.338;2022-11-25T08:50:50;31.25;;;22.90;;
70010;SDS011;59543;37.950;-122.338;2022-11-25T08:53:18;37.50;;;23.08;;
70010;SDS011;59543;37.950;-122.338;2022-11-25T08:55:46;37.80;;;23.33;;
70010;SDS011;59543;37.950;-122.338;2022-11-25T08:58:13;36.05;;;23.48;;
70010;SDS011;59543;37.950;-122.338;2022-11-25T09:00:40;35.15;;;23.45;;
70010;SDS011;59543;37.950;-122.338;2022-11-25T09:03:08;39.15;;;23.35;;
70010;SDS011;59543;37.950;-122.338;2022-11-25T09:05:39;34.60;;;23.73;;
70010;SDS011;59543;37.950;-122.338;2022-11-25T09:08:07;39.97;;;24.33;;
70010;SDS011;59543;37.950;-122.338;2022-11-25T09:10:35;37.10;;;23.52;;
70010;SDS011;59543;37.950;-122.338;2022-11-25T09:13:02;38.58;;;22.65;;
70010;SDS011;59543;37.950;-122.338;2022-11-25T09:15:28;35.97;;;22.83;;
70010;SDS011;59543;37.950;-122.338;2022-11-25T09:17:58;39.63;;;24.33;;
70010;SDS011;59543;37.950;-122.338;2022-11-25T09:20:26;36.92;;;23.52;;
70010;SDS011;59543;37.950;-122.338;2022-11-25T09:22:52;43.28;;;25.08;;
70010;SDS011;59543;37.950;-122.338;2022-11-25T09:25:19;38.25;;;24.52;;
70010;SDS011;59543;37.950;-122.338;2022-11-25T09:27:47;41.00;;;25.42;;
70010;SDS011;59543;37.950;-122.338;2022-11-25T09:30:13;46.58;;;24.77;;
70010;SDS011;59543;37.950;-122.338;2022-11-25T09:32:40;43.90;;;25.13;;
70010;SDS011;59543;37.950;-122.338;2022-11-25T09:35:06;36.28;;;25.20;;
70010;SDS011;59543;37.950;-122.338;2022-11-25T09:37:33;39.97;;;27.08;;
70010;SDS011;59543;37.950;-122.338;2022-11-25T09:39:59;43.20;;;25.98;;
70010;SDS011;59543;37.950;-122.338;2022-11-25T09:48:59;40.90;;;25.60;;
70010;SDS011;59543;37.950;-122.338;2022-11-25T09:57:24;43.00;;;26.20;;
70010;SDS011;59543;37.950;-122.338;2022-11-25T10:00:10;39.20;;;27.25;;
70010;SDS011;59543;37.950;-122.338;2022-11-25T10:02:46;39.40;;;27.13;;
70010;SDS011;59543;37.950;-122.338;2022-11-25T10:07:42;41.95;;;27.15;;
70010;SDS011;59543;37.950;-122.338;2022-11-25T10:10:21;42.20;;;26.52;;
70010;SDS011;59543;37.950;-122.338;2022-11-25T10:12:55;47.75;;;27.75;;
70010;SDS011;59543;37.950;-122.338;2022-11-25T10:15:33;52.35;;;31.92;;
70010;SDS011;59543;37.950;-122.338;2022-11-25T10:18:22;62.90;;;33.58;;
70010;SDS011;59543;37.950;-122.338;2022-11-25T10:21:04;52.17;;;30.73;;
70010;SDS011;59543;37.950;-122.338;2022-11-25T10:23:32;44.90;;;29.08;;
70010;SDS011;59543;37.950;-122.338;2022-11-25T10:26:00;41.47;;;28.58;;
70010;SDS011;59543;37.950;-122.338;2022-11-25T10:28:34;43.45;;;26.92;;
70010;SDS011;59543;37.950;-122.338;2022-11-25T10:33:32;40.50;;;25.05;;
70010;SDS011;59543;37.950;-122.338;2022-11-25T10:41:56;34.13;;;22.00;;
70010;SDS011;59543;37.950;-122.338;2022-11-25T10:44:34;37.45;;;23.27;;
70010;SDS011;59543;37.950;-122.338;2022-11-25T10:53:01;44.08;;;23.65;;
70010;SDS011;59543;37.950;-122.338;2022-11-25T10:55:54;41.30;;;23.73;;
70010;SDS011;59543;37.950;-122.338;2022-11-25T11:01:02;39.30;;;22.25;;
70010;SDS011;59543;37.950;-122.338;2022-11-25T11:03:38;38.55;;;23.30;;
70010;SDS011;59543;37.950;-122.338;2022-11-25T11:06:05;38.40;;;24.45;;
70010;SDS011;59543;37.950;-122.338;2022-11-25T11:13:41;42.00;;;25.70;;
70010;SDS011;59543;37.950;-122.338;2022-11-25T11:19:12;42.60;;;25.60;;
70010;SDS011;59543;37.950;-122.338;2022-11-25T11:21:46;42.22;;;25.45;;
70010;SDS011;59543;37.950;-122.338;2022-11-25T11:29:47;40.63;;;25.67;;
70010;SDS011;59543;37.950;-122.338;2022-11-25T11:32:28;36.67;;;24.50;;
70010;SDS011;59543;37.950;-122.338;2022-11-25T11:35:11;36.38;;;23.55;;
70010;SDS011;59543;37.950;-122.338;2022-11-25T11:38:00;32.17;;;22.35;;
70010;SDS011;59543;37.950;-122.338;2022-11-25T11:40:41;40.28;;;23.65;;
70010;SDS011;59543;37.950;-122.338;2022-11-25T11:56:48;38.92;;;25.40;;
70010;SDS011;59543;37.950;-122.338;2022-11-25T12:02:19;38.97;;;25.33;;
70010;SDS011;59543;37.950;-122.338;2022-11-25T12:05:30;38.55;;;24.63;;
70010;SDS011;59543;37.950;-122.338;2022-11-25T12:10:32;43.28;;;27.25;;
70010;SDS011;59543;37.950;-122.338;2022-11-25T12:13:16;53.70;;;29.55;;
70010;SDS011;59543;37.950;-122.338;2022-11-25T12:16:09;44.72;;;27.10;;
70010;SDS011;59543;37.950;-122.338;2022-11-25T12:18:48;43.60;;;27.10;;
70010;SDS011;59543;37.950;-122.338;2022-11-25T12:21:35;45.08;;;26.98;;
70010;SDS011;59543;37.950;-122.338;2022-11-25T12:27:16;49.13;;;29.00;;
70010;SDS011;59543;37.950;-122.338;2022-11-25T12:30:10;42.70;;;26.20;;
70010;SDS011;59543;37.950;-122.338;2022-11-25T12:37:37;47.35;;;27.55;;
70010;SDS011;59543;37.950;-122.338;2022-11-25T12:40:15;44.85;;;26.85;;
70010;SDS011;59543;37.950;-122.338;2022-11-25T12:42:51;35.40;;;23.55;;
70010;SDS011;59543;37.950;-122.338;2022-11-25T12:45:22;41.47;;;26.55;;
70010;SDS011;59543;37.950;-122.338;2022-11-25T12:47:50;34.80;;;22.67;;
70010;SDS011;59543;37.950;-122.338;2022-11-25T12:50:19;33.05;;;23.73;;
70010;SDS011;59543;37.950;-122.338;2022-11-25T12:55:57;37.50;;;24.10;;
70010;SDS011;59543;37.950;-122.338;2022-11-25T13:03:30;36.95;;;23.33;;
70010;SDS011;59543;37.950;-122.338;2022-11-25T13:09:07;35.35;;;21.83;;
70010;SDS011;59543;37.950;-122.338;2022-11-25T13:12:05;36.75;;;21.83;;
70010;SDS011;59543;37.950;-122.338;2022-11-25T13:17:24;29.50;;;18.90;;
70010;SDS011;59543;37.950;-122.338;2022-11-25T13:25:39;28.10;;;16.38;;
70010;SDS011;59543;37.950;-122.338;2022-11-25T13:35:51;26.83;;;16.23;;
70010;SDS011;59543;37.950;-122.338;2022-11-25T13:40:57;25.75;;;16.95;;
70010;SDS011;59543;37.950;-122.338;2022-11-25T13:43:26;27.55;;;17.20;;
70010;SDS011;59543;37.950;-122.338;2022-11-25T13:45:52;27.15;;;17.17;;
70010;SDS011;59543;37.950;-122.338;2022-11-25T13:51:10;27.58;;;16.85;;
70010;SDS011;59543;37.950;-122.338;2022-11-25T13:53:40;28.42;;;19.25;;
70010;SDS011;59543;37.950;-122.338;2022-11-25T13:56:20;40.97;;;19.05;;
70010;SDS011;59543;37.950;-122.338;2022-11-25T14:01:39;26.85;;;17.77;;
70010;SDS011;59543;37.950;-122.338;2022-11-25T14:04:16;32.38;;;18.17;;
70010;SDS011;59543;37.950;-122.338;2022-11-25T14:09:54;27.73;;;16.55;;
70010;SDS011;59543;37.950;-122.338;2022-11-25T14:15:58;25.98;;;16.45;;
70010;SDS011;59543;37.950;-122.338;2022-11-25T14:18:40;23.88;;;15.63;;
70010;SDS011;59543;37.950;-122.338;2022-11-25T14:21:26;23.50;;;16.55;;
70010;SDS011;59543;37.950;-122.338;2022-11-25T14:26:35;30.13;;;15.45;;
70010;SDS011;59543;37.950;-122.338;2022-11-25T14:29:21;28.60;;;16.98;;
70010;SDS011;59543;37.950;-122.338;2022-11-25T14:31:54;32.92;;;16.35;;
70010;SDS011;59543;37.950;-122.338;2022-11-25T14:42:31;38.17;;;21.52;;
70010;SDS011;59543;37.950;-122.338;2022-11-25T14:45:02;29.38;;;20.27;;
70010;SDS011;59543;37.950;-122.338;2022-11-25T14:47:43;36.65;;;23.50;;
70010;SDS011;59543;37.950;-122.338;2022-11-25T14:50:11;36.20;;;22.25;;
70010;SDS011;59543;37.950;-122.338;2022-11-25T14:52:39;39.25;;;22.95;;
70010;SDS011;59543;37.950;-122.338;2022-11-25T14:55:12;39.80;;;23.58;;
70010;SDS011;59543;37.950;-122.338;2022-11-25T14:57:51;38.58;;;24.13;;
70010;SDS011;59543;37.950;-122.338;2022-11-25T15:03:00;34.65;;;22.60;;
70010;SDS011;59543;37.950;-122.338;2022-11-25T15:05:33;42.95;;;24.70;;
70010;SDS011;59543;37.950;-122.338;2022-11-25T15:08:02;36.53;;;22.65;;
70010;SDS011;59543;37.950;-122.338;2022-11-25T15:15:44;37.58;;;21.75;;
70010;SDS011;59543;37.950;-122.338;2022-11-25T15:18:13;36.00;;;21.40;;
70010;SDS011;59543;37.950;-122.338;2022-11-25T15:20:57;33.67;;;20.05;;
70010;SDS011;59543;37.950;-122.338;2022-11-25T15:23:26;33.92;;;20.85;;
70010;SDS011;59543;37.950;-122.338;2022-11-25T15:25:59;36.42;;;20.33;;
70010;SDS011;59543;37.950;-122.338;2022-11-25T15:28:32;41.75;;;20.85;;
70010;SDS011;59543;37.950;-122.338;2022-11-25T15:31:00;36.05;;;20.83;;
70010;SDS011;59543;37.950;-122.338;2022-11-25T15:33:32;40.50;;;22.73;;
70010;SDS011;59543;37.950;-122.338;2022-11-25T15:35:59;33.65;;;20.88;;
70010;SDS011;59543;37.950;-122.338;2022-11-25T15:38:35;43.25;;;22.95;;
70010;SDS011;59543;37.950;-122.338;2022-11-25T15:41:10;42.35;;;23.30;;
70010;SDS011;59543;37.950;-122.338;2022-11-25T15:43:50;38.50;;;22.23;;
70010;SDS011;59543;37.950;-122.338;2022-11-25T15:46:21;35.35;;;21.55;;
70010;SDS011;59543;37.950;-122.338;2022-11-25T15:48:48;35.35;;;21.80;;
70010;SDS011;59543;37.950;-122.338;2022-11-25T15:56:43;31.83;;;19.92;;
70010;SDS011;59543;37.950;-122.338;2022-11-25T15:59:41;35.67;;;20.65;;
70010;SDS011;59543;37.950;-122.338;2022-11-25T16:05:21;35.78;;;20.00;;
70010;SDS011;59543;37.950;-122.338;2022-11-25T16:15:57;39.38;;;19.30;;
70010;SDS011;59543;37.950;-122.338;2022-11-25T16:18:41;31.50;;;19.20;;
70010;SDS011;59543;37.950;-122.338;2022-11-25T16:21:22;31.95;;;18.85;;
70010;SDS011;59543;37.950;-122.338;2022-11-25T16:23:55;41.13;;;20.98;;
70010;SDS011;59543;37.950;-122.338;2022-11-25T16:26:27;41.88;;;22.80;;
70010;SDS011;59543;37.950;-122.338;2022-11-25T16:28:57;44.70;;;25.20;;
70010;SDS011;59543;37.950;-122.338;2022-11-25T16:31:25;41.35;;;26.35;;
70010;SDS011;59543;37.950;-122.338;2022-11-25T16:33:57;44.38;;;26.10;;
70010;SDS011;59543;37.950;-122.338;2022-11-25T16:36:44;50.42;;;27.27;;
70010;SDS011;59543;37.950;-122.338;2022-11-25T16:41:36;49.20;;;29.15;;
70010;SDS011;59543;37.950;-122.338;2022-11-25T16:44:03;47.45;;;28.98;;